sensor_id;sensor_type;location;lat;lon;timestamp;P1;durP1;ratioP1;P2;durP2;ratioP2
72201;SDS011;60105;54.956;73.412;2023-05-07T00:00:13;35.53;;;12.30;;
72201;SDS011;60105;54.956;73.412;2023-05-07T00:03:16;26.30;;;11.52;;
72201;SDS011;60105;54.956;73.412;2023-05-07T00:06:55;26.55;;;10.35;;
72201;SDS011;60105;54.956;73.412;2023-05-07T00:09:56;24.58;;;10.05;;
72201;SDS011;60105;54.956;73.412;2023-05-07T00:12:58;24.43;;;11.47;;
72201;SDS011;60105;54.956;73.412;2023-05-07T00:15:59;27.45;;;11.77;;
72201;SDS011;60105;54.956;73.412;2023-05-07T00:19:00;20.97;;;10.63;;
72201;SDS011;60105;54.956;73.412;2023-05-07T00:22:02;29.50;;;9.20;;
72201;SDS011;60105;54.956;73.412;2023-05-07T00:25:03;23.40;;;9.85;;
72201;SDS011;60105;54.956;73.412;2023-05-07T00:28:07;16.83;;;8.20;;
72201;SDS011;60105;54.956;73.412;2023-05-07T00:31:08;20.47;;;9.17;;
72201;SDS011;60105;54.956;73.412;2023-05-07T00:34:10;18.10;;;8.25;;
72201;SDS011;60105;54.956;73.412;2023-05-07T00:37:11;15.68;;;8.18;;
72201;SDS011;60105;54.956;73.412;2023-05-07T00:40:12;21.15;;;7.93;;
72201;SDS011;60105;54.956;73.412;2023-05-07T00:43:15;14.55;;;7.47;;
72201;SDS011;60105;54.956;73.412;2023-05-07T00:46:56;16.98;;;8.05;;
72201;SDS011;60105;54.956;73.412;2023-05-07T00:49:58;18.88;;;8.13;;
72201;SDS011;60105;54.956;73.412;2023-05-07T00:53:00;16.60;;;7.63;;
72201;SDS011;60105;54.956;73.412;2023-05-07T00:56:01;18.05;;;8.90;;
72201;SDS011;60105;54.956;73.412;2023-05-07T00:59:03;20.50;;;8.60;;
72201;SDS011;60105;54.956;73.412;2023-05-07T01:02:04;23.77;;;8.10;;
72201;SDS011;60105;54.956;73.412;2023-05-07T01:05:07;19.13;;;7.90;;
72201;SDS011;60105;54.956;73.412;2023-05-07T01:08:10;19.63;;;8.23;;
72201;SDS011;60105;54.956;73.412;2023-05-07T01:11:55;20.57;;;8.06;;
72201;SDS011;60105;54.956;73.412;2023-05-07T01:14:58;15.75;;;7.70;;
72201;SDS011;60105;54.956;73.412;2023-05-07T01:17:59;17.93;;;7.43;;
72201;SDS011;60105;54.956;73.412;2023-05-07T01:21:07;16.83;;;7.43;;
72201;SDS011;60105;54.956;73.412;2023-05-07T01:24:12;14.00;;;6.93;;
72201;SDS011;60105;54.956;73.412;2023-05-07T01:27:13;16.75;;;7.03;;
72201;SDS011;60105;54.956;73.412;2023-05-07T01:30:16;17.63;;;6.67;;
72201;SDS011;60105;54.956;73.412;2023-05-07T01:33:20;16.88;;;7.18;;
72201;SDS011;60105;54.956;73.412;2023-05-07T01:36:55;21.17;;;7.00;;
72201;SDS011;60105;54.956;73.412;2023-05-07T01:39:59;19.50;;;8.00;;
72201;SDS011;60105;54.956;73.412;2023-05-07T01:43:02;15.97;;;7.27;;
72201;SDS011;60105;54.956;73.412;2023-05-07T01:46:05;16.60;;;7.50;;
72201;SDS011;60105;54.956;73.412;2023-05-07T01:49:07;19.60;;;7.43;;
72201;SDS011;60105;54.956;73.412;2023-05-07T01:52:10;25.07;;;8.87;;
72201;SDS011;60105;54.956;73.412;2023-05-07T01:55:12;17.40;;;8.80;;
72201;SDS011;60105;54.956;73.412;2023-05-07T01:58:15;27.53;;;7.87;;
72201;SDS011;60105;54.956;73.412;2023-05-07T02:01:24;14.65;;;7.35;;
72201;SDS011;60105;54.956;73.412;2023-05-07T02:04:25;15.55;;;6.70;;
72201;SDS011;60105;54.956;73.412;2023-05-07T02:07:28;16.77;;;7.50;;
72201;SDS011;60105;54.956;73.412;2023-05-07T02:10:29;18.30;;;7.30;;
72201;SDS011;60105;54.956;73.412;2023-05-07T02:13:31;17.13;;;7.13;;
72201;SDS011;60105;54.956;73.412;2023-05-07T02:19:57;13.75;;;6.60;;
72201;SDS011;60105;54.956;73.412;2023-05-07T02:23:18;17.17;;;7.25;;
72201;SDS011;60105;54.956;73.412;2023-05-07T02:26:55;15.02;;;6.53;;
72201;SDS011;60105;54.956;73.412;2023-05-07T02:29:57;21.15;;;7.30;;
72201;SDS011;60105;54.956;73.412;2023-05-07T02:32:58;20.23;;;6.60;;
72201;SDS011;60105;54.956;73.412;2023-05-07T02:36:06;18.05;;;6.97;;
72201;SDS011;60105;54.956;73.412;2023-05-07T02:39:19;17.80;;;6.30;;
72201;SDS011;60105;54.956;73.412;2023-05-07T02:42:20;20.33;;;6.90;;
72201;SDS011;60105;54.956;73.412;2023-05-07T02:45:21;21.20;;;6.60;;
72201;SDS011;60105;54.956;73.412;2023-05-07T02:48:26;13.88;;;6.18;;
72201;SDS011;60105;54.956;73.412;2023-05-07T02:51:55;11.98;;;6.03;;
72201;SDS011;60105;54.956;73.412;2023-05-07T02:54:59;19.45;;;6.68;;
72201;SDS011;60105;54.956;73.412;2023-05-07T02:58:00;11.75;;;5.80;;
72201;SDS011;60105;54.956;73.412;2023-05-07T03:01:02;16.57;;;5.70;;
72201;SDS011;60105;54.956;73.412;2023-05-07T03:04:27;16.70;;;6.20;;
72201;SDS011;60105;54.956;73.412;2023-05-07T03:07:28;15.43;;;5.50;;
72201;SDS011;60105;54.956;73.412;2023-05-07T03:10:38;8.93;;;4.67;;
72201;SDS011;60105;54.956;73.412;2023-05-07T03:13:39;16.90;;;4.93;;
72201;SDS011;60105;54.956;73.412;2023-05-07T03:19:56;12.83;;;5.60;;
72201;SDS011;60105;54.956;73.412;2023-05-07T03:22:58;11.20;;;5.00;;
72201;SDS011;60105;54.956;73.412;2023-05-07T03:25:59;12.95;;;5.45;;
72201;SDS011;60105;54.956;73.412;2023-05-07T03:29:01;20.53;;;6.47;;
72201;SDS011;60105;54.956;73.412;2023-05-07T03:32:02;14.32;;;5.15;;
72201;SDS011;60105;54.956;73.412;2023-05-07T03:35:04;11.73;;;5.53;;
72201;SDS011;60105;54.956;73.412;2023-05-07T03:38:06;18.00;;;6.82;;
72201;SDS011;60105;54.956;73.412;2023-05-07T03:41:10;16.35;;;6.05;;
72201;SDS011;60105;54.956;73.412;2023-05-07T03:44:12;17.73;;;6.13;;
72201;SDS011;60105;54.956;73.412;2023-05-07T03:47:14;24.37;;;6.57;;
72201;SDS011;60105;54.956;73.412;2023-05-07T03:50:16;16.02;;;5.88;;
72201;SDS011;60105;54.956;73.412;2023-05-07T03:53:17;16.87;;;6.50;;
72201;SDS011;60105;54.956;73.412;2023-05-07T03:56:55;19.52;;;5.47;;
72201;SDS011;60105;54.956;73.412;2023-05-07T03:59:57;13.30;;;5.68;;
72201;SDS011;60105;54.956;73.412;2023-05-07T04:02:58;11.53;;;5.80;;
72201;SDS011;60105;54.956;73.412;2023-05-07T04:06:02;12.68;;;5.05;;
72201;SDS011;60105;54.956;73.412;2023-05-07T04:09:06;22.57;;;5.03;;
72201;SDS011;60105;54.956;73.412;2023-05-07T04:12:08;18.98;;;5.15;;
72201;SDS011;60105;54.956;73.412;2023-05-07T04:15:10;17.13;;;4.80;;
72201;SDS011;60105;54.956;73.412;2023-05-07T04:18:11;12.07;;;4.77;;
72201;SDS011;60105;54.956;73.412;2023-05-07T04:21:55;12.60;;;4.82;;
72201;SDS011;60105;54.956;73.412;2023-05-07T04:24:57;12.83;;;3.87;;
72201;SDS011;60105;54.956;73.412;2023-05-07T04:27:59;11.95;;;4.30;;
72201;SDS011;60105;54.956;73.412;2023-05-07T04:31:03;15.17;;;4.57;;
72201;SDS011;60105;54.956;73.412;2023-05-07T04:34:06;9.43;;;4.07;;
72201;SDS011;60105;54.956;73.412;2023-05-07T04:37:09;14.50;;;4.35;;
72201;SDS011;60105;54.956;73.412;2023-05-07T04:40:11;18.67;;;5.13;;
72201;SDS011;60105;54.956;73.412;2023-05-07T04:43:12;14.57;;;3.63;;
72201;SDS011;60105;54.956;73.412;2023-05-07T04:46:55;11.27;;;3.67;;
72201;SDS011;60105;54.956;73.412;2023-05-07T04:49:59;9.10;;;3.85;;
72201;SDS011;60105;54.956;73.412;2023-05-07T04:53:03;9.23;;;3.70;;
72201;SDS011;60105;54.956;73.412;2023-05-07T04:56:04;9.03;;;3.83;;
72201;SDS011;60105;54.956;73.412;2023-05-07T04:59:14;11.52;;;3.17;;
72201;SDS011;60105;54.956;73.412;2023-05-07T05:02:16;7.53;;;3.67;;
72201;SDS011;60105;54.956;73.412;2023-05-07T05:05:18;11.48;;;3.70;;
72201;SDS011;60105;54.956;73.412;2023-05-07T05:08:23;14.63;;;4.20;;
72201;SDS011;60105;54.956;73.412;2023-05-07T05:11:55;11.07;;;3.88;;
72201;SDS011;60105;54.956;73.412;2023-05-07T05:14:57;14.43;;;4.00;;
72201;SDS011;60105;54.956;73.412;2023-05-07T05:17:58;7.68;;;3.35;;
72201;SDS011;60105;54.956;73.412;2023-05-07T05:20:59;6.80;;;3.30;;
72201;SDS011;60105;54.956;73.412;2023-05-07T05:24:02;5.97;;;2.70;;
72201;SDS011;60105;54.956;73.412;2023-05-07T05:27:03;4.47;;;2.83;;
72201;SDS011;60105;54.956;73.412;2023-05-07T05:30:06;11.38;;;3.47;;
72201;SDS011;60105;54.956;73.412;2023-05-07T05:33:09;11.73;;;3.25;;
72201;SDS011;60105;54.956;73.412;2023-05-07T05:36:55;8.02;;;3.04;;
72201;SDS011;60105;54.956;73.412;2023-05-07T05:39:58;7.53;;;3.05;;
72201;SDS011;60105;54.956;73.412;2023-05-07T05:43:02;8.30;;;3.53;;
72201;SDS011;60105;54.956;73.412;2023-05-07T05:46:04;10.93;;;2.58;;
72201;SDS011;60105;54.956;73.412;2023-05-07T05:49:06;6.47;;;3.13;;
72201;SDS011;60105;54.956;73.412;2023-05-07T05:52:08;5.47;;;3.03;;
72201;SDS011;60105;54.956;73.412;2023-05-07T05:55:10;5.57;;;2.60;;
72201;SDS011;60105;54.956;73.412;2023-05-07T05:58:12;7.05;;;2.92;;
72201;SDS011;60105;54.956;73.412;2023-05-07T06:01:23;7.75;;;3.00;;
72201;SDS011;60105;54.956;73.412;2023-05-07T06:04:27;9.30;;;2.65;;
72201;SDS011;60105;54.956;73.412;2023-05-07T06:07:29;6.35;;;3.05;;
72201;SDS011;60105;54.956;73.412;2023-05-07T06:10:31;5.03;;;2.60;;
72201;SDS011;60105;54.956;73.412;2023-05-07T06:13:32;5.95;;;2.97;;
72201;SDS011;60105;54.956;73.412;2023-05-07T06:19:56;7.05;;;3.10;;
72201;SDS011;60105;54.956;73.412;2023-05-07T06:22:58;8.25;;;3.10;;
72201;SDS011;60105;54.956;73.412;2023-05-07T06:26:00;6.77;;;2.93;;
72201;SDS011;60105;54.956;73.412;2023-05-07T06:29:07;8.30;;;3.15;;
72201;SDS011;60105;54.956;73.412;2023-05-07T06:32:09;6.38;;;2.70;;
72201;SDS011;60105;54.956;73.412;2023-05-07T06:35:16;6.87;;;2.60;;
72201;SDS011;60105;54.956;73.412;2023-05-07T06:38:17;7.00;;;3.20;;
72201;SDS011;60105;54.956;73.412;2023-05-07T06:41:55;6.97;;;2.72;;
72201;SDS011;60105;54.956;73.412;2023-05-07T06:45:01;8.48;;;2.40;;
72201;SDS011;60105;54.956;73.412;2023-05-07T06:48:06;5.03;;;2.37;;
72201;SDS011;60105;54.956;73.412;2023-05-07T06:51:55;7.38;;;2.65;;
72201;SDS011;60105;54.956;73.412;2023-05-07T06:54:57;9.10;;;2.70;;
72201;SDS011;60105;54.956;73.412;2023-05-07T06:58:00;5.35;;;2.58;;
72201;SDS011;60105;54.956;73.412;2023-05-07T07:01:02;6.38;;;2.85;;
72201;SDS011;60105;54.956;73.412;2023-05-07T07:04:05;9.60;;;2.43;;
72201;SDS011;60105;54.956;73.412;2023-05-07T07:07:07;4.63;;;2.30;;
72201;SDS011;60105;54.956;73.412;2023-05-07T07:10:10;7.80;;;2.17;;
72201;SDS011;60105;54.956;73.412;2023-05-07T07:13:11;5.57;;;2.40;;
72201;SDS011;60105;54.956;73.412;2023-05-07T07:16:55;8.42;;;2.93;;
72201;SDS011;60105;54.956;73.412;2023-05-07T07:19:58;6.30;;;2.35;;
72201;SDS011;60105;54.956;73.412;2023-05-07T07:23:00;6.88;;;2.55;;
72201;SDS011;60105;54.956;73.412;2023-05-07T07:26:01;6.68;;;2.78;;
72201;SDS011;60105;54.956;73.412;2023-05-07T07:29:03;10.90;;;2.43;;
72201;SDS011;60105;54.956;73.412;2023-05-07T07:32:04;6.68;;;2.60;;
72201;SDS011;60105;54.956;73.412;2023-05-07T07:35:07;6.80;;;2.97;;
72201;SDS011;60105;54.956;73.412;2023-05-07T07:38:10;6.27;;;2.20;;
72201;SDS011;60105;54.956;73.412;2023-05-07T07:41:55;6.72;;;2.42;;
72201;SDS011;60105;54.956;73.412;2023-05-07T07:44:57;8.25;;;2.72;;
72201;SDS011;60105;54.956;73.412;2023-05-07T07:48:01;7.53;;;2.47;;
72201;SDS011;60105;54.956;73.412;2023-05-07T07:51:06;5.20;;;2.28;;
72201;SDS011;60105;54.956;73.412;2023-05-07T07:54:08;7.13;;;2.08;;
72201;SDS011;60105;54.956;73.412;2023-05-07T07:57:10;4.27;;;2.20;;
72201;SDS011;60105;54.956;73.412;2023-05-07T08:00:12;5.47;;;2.35;;
72201;SDS011;60105;54.956;73.412;2023-05-07T08:03:22;6.70;;;2.43;;
72201;SDS011;60105;54.956;73.412;2023-05-07T08:06:55;7.30;;;2.38;;
72201;SDS011;60105;54.956;73.412;2023-05-07T08:09:57;7.17;;;2.70;;
72201;SDS011;60105;54.956;73.412;2023-05-07T08:13:00;5.70;;;2.03;;
72201;SDS011;60105;54.956;73.412;2023-05-07T08:16:04;7.40;;;2.50;;
72201;SDS011;60105;54.956;73.412;2023-05-07T08:19:07;8.35;;;2.50;;
72201;SDS011;60105;54.956;73.412;2023-05-07T08:22:09;8.73;;;2.73;;
72201;SDS011;60105;54.956;73.412;2023-05-07T08:25:11;7.53;;;3.07;;
72201;SDS011;60105;54.956;73.412;2023-05-07T08:28:13;7.45;;;2.45;;
72201;SDS011;60105;54.956;73.412;2023-05-07T08:31:23;7.40;;;3.08;;
72201;SDS011;60105;54.956;73.412;2023-05-07T08:34:25;13.77;;;2.22;;
72201;SDS011;60105;54.956;73.412;2023-05-07T08:37:29;5.78;;;2.35;;
72201;SDS011;60105;54.956;73.412;2023-05-07T08:40:32;6.13;;;2.47;;
72201;SDS011;60105;54.956;73.412;2023-05-07T08:43:46;6.53;;;2.60;;
72201;SDS011;60105;54.956;73.412;2023-05-07T08:49:58;5.17;;;2.43;;
72201;SDS011;60105;54.956;73.412;2023-05-07T08:53:00;7.70;;;2.23;;
72201;SDS011;60105;54.956;73.412;2023-05-07T08:56:04;5.10;;;2.53;;
72201;SDS011;60105;54.956;73.412;2023-05-07T08:59:07;7.30;;;2.38;;
72201;SDS011;60105;54.956;73.412;2023-05-07T09:02:08;4.40;;;2.30;;
72201;SDS011;60105;54.956;73.412;2023-05-07T09:05:13;5.55;;;2.65;;
72201;SDS011;60105;54.956;73.412;2023-05-07T09:08:15;10.85;;;2.78;;
72201;SDS011;60105;54.956;73.412;2023-05-07T09:11:57;10.48;;;2.50;;
72201;SDS011;60105;54.956;73.412;2023-05-07T09:15:06;7.28;;;2.55;;
72201;SDS011;60105;54.956;73.412;2023-05-07T09:18:09;5.32;;;2.50;;
72201;SDS011;60105;54.956;73.412;2023-05-07T09:21:58;9.47;;;2.56;;
72201;SDS011;60105;54.956;73.412;2023-05-07T09:25:04;8.17;;;2.23;;
72201;SDS011;60105;54.956;73.412;2023-05-07T09:28:11;6.55;;;2.45;;
72201;SDS011;60105;54.956;73.412;2023-05-07T09:31:23;8.90;;;2.46;;
72201;SDS011;60105;54.956;73.412;2023-05-07T09:34:29;5.72;;;2.10;;
72201;SDS011;60105;54.956;73.412;2023-05-07T09:37:31;10.67;;;2.73;;
72201;SDS011;60105;54.956;73.412;2023-05-07T09:40:35;8.70;;;2.80;;
72201;SDS011;60105;54.956;73.412;2023-05-07T09:43:43;13.43;;;2.60;;
72201;SDS011;60105;54.956;73.412;2023-05-07T09:50:06;13.55;;;2.28;;
72201;SDS011;60105;54.956;73.412;2023-05-07T09:53:12;7.43;;;1.93;;
72201;SDS011;60105;54.956;73.412;2023-05-07T09:56:55;4.82;;;1.77;;
72201;SDS011;60105;54.956;73.412;2023-05-07T10:00:00;9.02;;;2.40;;
72201;SDS011;60105;54.956;73.412;2023-05-07T10:03:10;6.20;;;2.13;;
72201;SDS011;60105;54.956;73.412;2023-05-07T10:06:55;7.43;;;2.53;;
72201;SDS011;60105;54.956;73.412;2023-05-07T10:09:58;9.90;;;2.88;;
72201;SDS011;60105;54.956;73.412;2023-05-07T10:13:09;7.32;;;2.83;;
72201;SDS011;60105;54.956;73.412;2023-05-07T10:16:55;5.10;;;2.25;;
72201;SDS011;60105;54.956;73.412;2023-05-07T10:19:58;7.63;;;2.43;;
72201;SDS011;60105;54.956;73.412;2023-05-07T10:22:59;13.47;;;2.60;;
72201;SDS011;60105;54.956;73.412;2023-05-07T10:26:55;5.30;;;2.10;;
72201;SDS011;60105;54.956;73.412;2023-05-07T10:30:12;4.90;;;2.30;;
72201;SDS011;60105;54.956;73.412;2023-05-07T10:33:26;11.20;;;2.20;;
72201;SDS011;60105;54.956;73.412;2023-05-07T10:36:55;10.60;;;2.15;;
72201;SDS011;60105;54.956;73.412;2023-05-07T10:39:58;7.07;;;2.30;;
72201;SDS011;60105;54.956;73.412;2023-05-07T10:43:06;8.82;;;2.10;;
72201;SDS011;60105;54.956;73.412;2023-05-07T10:47:08;5.50;;;2.33;;
72201;SDS011;60105;54.956;73.412;2023-05-07T11:00:01;7.47;;;2.87;;
72201;SDS011;60105;54.956;73.412;2023-05-07T11:03:23;7.50;;;2.60;;
72201;SDS011;60105;54.956;73.412;2023-05-07T11:10:22;9.82;;;2.97;;
72201;SDS011;60105;54.956;73.412;2023-05-07T11:13:42;10.18;;;2.90;;
72201;SDS011;60105;54.956;73.412;2023-05-07T11:17:06;5.33;;;2.73;;
72201;SDS011;60105;54.956;73.412;2023-05-07T11:20:08;7.10;;;2.70;;
72201;SDS011;60105;54.956;73.412;2023-05-07T11:29:58;11.23;;;3.35;;
72201;SDS011;60105;54.956;73.412;2023-05-07T11:33:07;8.70;;;2.97;;
72201;SDS011;60105;54.956;73.412;2023-05-07T11:36:09;7.75;;;2.88;;
72201;SDS011;60105;54.956;73.412;2023-05-07T11:39:30;10.13;;;3.13;;
72201;SDS011;60105;54.956;73.412;2023-05-07T11:42:34;8.20;;;3.05;;
72201;SDS011;60105;54.956;73.412;2023-05-07T11:45:38;8.68;;;3.40;;
72201;SDS011;60105;54.956;73.412;2023-05-07T11:48:39;9.30;;;3.70;;
72201;SDS011;60105;54.956;73.412;2023-05-07T11:54:57;10.30;;;3.05;;
72201;SDS011;60105;54.956;73.412;2023-05-07T11:58:00;9.03;;;3.23;;
72201;SDS011;60105;54.956;73.412;2023-05-07T12:01:01;14.27;;;3.75;;
72201;SDS011;60105;54.956;73.412;2023-05-07T12:04:03;6.83;;;3.57;;
72201;SDS011;60105;54.956;73.412;2023-05-07T12:07:06;7.97;;;2.90;;
72201;SDS011;60105;54.956;73.412;2023-05-07T12:10:12;9.20;;;3.58;;
72201;SDS011;60105;54.956;73.412;2023-05-07T12:13:21;9.77;;;3.42;;
72201;SDS011;60105;54.956;73.412;2023-05-07T12:16:55;4.57;;;2.83;;
72201;SDS011;60105;54.956;73.412;2023-05-07T12:19:56;8.43;;;3.28;;
72201;SDS011;60105;54.956;73.412;2023-05-07T12:22:58;10.15;;;4.03;;
72201;SDS011;60105;54.956;73.412;2023-05-07T12:25:59;7.97;;;3.97;;
72201;SDS011;60105;54.956;73.412;2023-05-07T12:29:01;14.63;;;4.00;;
72201;SDS011;60105;54.956;73.412;2023-05-07T12:32:05;11.27;;;4.10;;
72201;SDS011;60105;54.956;73.412;2023-05-07T12:35:07;10.07;;;4.57;;
72201;SDS011;60105;54.956;73.412;2023-05-07T12:38:12;10.93;;;4.32;;
72201;SDS011;60105;54.956;73.412;2023-05-07T12:41:55;13.60;;;3.72;;
72201;SDS011;60105;54.956;73.412;2023-05-07T12:44:59;8.65;;;3.58;;
72201;SDS011;60105;54.956;73.412;2023-05-07T12:48:01;9.33;;;3.70;;
72201;SDS011;60105;54.956;73.412;2023-05-07T12:51:03;8.13;;;3.53;;
72201;SDS011;60105;54.956;73.412;2023-05-07T12:54:06;11.20;;;3.20;;
72201;SDS011;60105;54.956;73.412;2023-05-07T12:57:08;12.73;;;3.67;;
72201;SDS011;60105;54.956;73.412;2023-05-07T13:00:11;10.57;;;3.65;;
72201;SDS011;60105;54.956;73.412;2023-05-07T13:03:22;9.00;;;3.50;;
72201;SDS011;60105;54.956;73.412;2023-05-07T13:09:56;13.45;;;4.45;;
72201;SDS011;60105;54.956;73.412;2023-05-07T13:12:57;10.93;;;4.70;;
72201;SDS011;60105;54.956;73.412;2023-05-07T13:15:59;10.80;;;4.80;;
72201;SDS011;60105;54.956;73.412;2023-05-07T13:19:01;12.43;;;4.87;;
72201;SDS011;60105;54.956;73.412;2023-05-07T13:22:03;7.87;;;5.03;;
72201;SDS011;60105;54.956;73.412;2023-05-07T13:25:04;14.10;;;5.43;;
72201;SDS011;60105;54.956;73.412;2023-05-07T13:28:06;11.47;;;5.50;;
72201;SDS011;60105;54.956;73.412;2023-05-07T13:31:07;22.20;;;7.35;;
72201;SDS011;60105;54.956;73.412;2023-05-07T13:34:09;13.23;;;5.70;;
72201;SDS011;60105;54.956;73.412;2023-05-07T13:37:11;10.63;;;5.07;;
72201;SDS011;60105;54.956;73.412;2023-05-07T13:40:12;17.10;;;5.90;;
72201;SDS011;60105;54.956;73.412;2023-05-07T13:43:14;15.98;;;6.03;;
72201;SDS011;60105;54.956;73.412;2023-05-07T13:46:55;13.14;;;6.44;;
72201;SDS011;60105;54.956;73.412;2023-05-07T13:49:56;17.33;;;6.88;;
72201;SDS011;60105;54.956;73.412;2023-05-07T13:52:58;16.92;;;6.63;;
72201;SDS011;60105;54.956;73.412;2023-05-07T13:55:59;19.63;;;7.43;;
72201;SDS011;60105;54.956;73.412;2023-05-07T13:59:00;24.37;;;11.37;;
72201;SDS011;60105;54.956;73.412;2023-05-07T14:02:02;28.97;;;13.23;;
72201;SDS011;60105;54.956;73.412;2023-05-07T14:05:03;35.58;;;14.05;;
72201;SDS011;60105;54.956;73.412;2023-05-07T14:08:06;31.60;;;13.70;;
72201;SDS011;60105;54.956;73.412;2023-05-07T14:11:09;30.75;;;13.80;;
72201;SDS011;60105;54.956;73.412;2023-05-07T14:14:10;26.43;;;12.87;;
72201;SDS011;60105;54.956;73.412;2023-05-07T14:17:12;29.90;;;11.88;;
72201;SDS011;60105;54.956;73.412;2023-05-07T14:20:13;32.20;;;11.60;;
72201;SDS011;60105;54.956;73.412;2023-05-07T14:23:15;26.70;;;11.82;;
72201;SDS011;60105;54.956;73.412;2023-05-07T14:26:55;28.05;;;13.38;;
72201;SDS011;60105;54.956;73.412;2023-05-07T14:29:56;33.38;;;14.13;;
72201;SDS011;60105;54.956;73.412;2023-05-07T14:32:57;32.00;;;13.47;;
72201;SDS011;60105;54.956;73.412;2023-05-07T14:35:59;29.83;;;15.27;;
72201;SDS011;60105;54.956;73.412;2023-05-07T14:39:00;34.63;;;15.00;;
72201;SDS011;60105;54.956;73.412;2023-05-07T14:42:03;29.87;;;15.93;;
72201;SDS011;60105;54.956;73.412;2023-05-07T14:45:05;30.88;;;18.23;;
72201;SDS011;60105;54.956;73.412;2023-05-07T14:48:07;36.40;;;18.20;;
72201;SDS011;60105;54.956;73.412;2023-05-07T14:51:10;27.45;;;14.15;;
72201;SDS011;60105;54.956;73.412;2023-05-07T14:54:12;32.53;;;13.97;;
72201;SDS011;60105;54.956;73.412;2023-05-07T14:57:14;30.77;;;14.02;;
72201;SDS011;60105;54.956;73.412;2023-05-07T15:00:17;23.88;;;12.63;;
72201;SDS011;60105;54.956;73.412;2023-05-07T15:03:18;29.07;;;10.70;;
72201;SDS011;60105;54.956;73.412;2023-05-07T15:06:55;20.65;;;10.95;;
72201;SDS011;60105;54.956;73.412;2023-05-07T15:09:56;21.02;;;10.85;;
72201;SDS011;60105;54.956;73.412;2023-05-07T15:12:57;24.13;;;11.48;;
72201;SDS011;60105;54.956;73.412;2023-05-07T15:15:59;21.37;;;9.87;;
72201;SDS011;60105;54.956;73.412;2023-05-07T15:19:00;22.63;;;9.88;;
72201;SDS011;60105;54.956;73.412;2023-05-07T15:22:02;25.60;;;7.63;;
72201;SDS011;60105;54.956;73.412;2023-05-07T15:25:03;18.83;;;9.10;;
72201;SDS011;60105;54.956;73.412;2023-05-07T15:28:05;26.00;;;9.60;;
72201;SDS011;60105;54.956;73.412;2023-05-07T15:31:07;20.83;;;10.52;;
72201;SDS011;60105;54.956;73.412;2023-05-07T15:34:09;30.98;;;11.23;;
72201;SDS011;60105;54.956;73.412;2023-05-07T15:37:11;23.10;;;11.02;;
72201;SDS011;60105;54.956;73.412;2023-05-07T15:40:13;24.23;;;11.20;;
72201;SDS011;60105;54.956;73.412;2023-05-07T15:43:15;29.63;;;11.65;;
72201;SDS011;60105;54.956;73.412;2023-05-07T15:46:55;22.38;;;9.35;;
72201;SDS011;60105;54.956;73.412;2023-05-07T15:49:56;17.98;;;9.07;;
72201;SDS011;60105;54.956;73.412;2023-05-07T15:52:58;19.27;;;7.32;;
72201;SDS011;60105;54.956;73.412;2023-05-07T15:55:59;16.70;;;7.78;;
72201;SDS011;60105;54.956;73.412;2023-05-07T15:59:00;25.60;;;8.80;;
72201;SDS011;60105;54.956;73.412;2023-05-07T16:02:02;16.65;;;7.68;;
72201;SDS011;60105;54.956;73.412;2023-05-07T16:05:04;18.20;;;7.10;;
72201;SDS011;60105;54.956;73.412;2023-05-07T16:08:10;16.95;;;7.57;;
72201;SDS011;60105;54.956;73.412;2023-05-07T16:11:55;20.26;;;8.06;;
72201;SDS011;60105;54.956;73.412;2023-05-07T16:14:56;16.92;;;8.68;;
72201;SDS011;60105;54.956;73.412;2023-05-07T16:17:57;26.95;;;9.05;;
72201;SDS011;60105;54.956;73.412;2023-05-07T16:20:59;21.53;;;9.43;;
72201;SDS011;60105;54.956;73.412;2023-05-07T16:24:01;24.97;;;9.60;;
72201;SDS011;60105;54.956;73.412;2023-05-07T16:27:02;24.73;;;8.90;;
72201;SDS011;60105;54.956;73.412;2023-05-07T16:30:04;31.55;;;10.02;;
72201;SDS011;60105;54.956;73.412;2023-05-07T16:33:07;25.85;;;10.00;;
72201;SDS011;60105;54.956;73.412;2023-05-07T16:36:08;26.13;;;9.50;;
72201;SDS011;60105;54.956;73.412;2023-05-07T16:39:10;21.48;;;9.20;;
72201;SDS011;60105;54.956;73.412;2023-05-07T16:42:11;20.60;;;9.20;;
72201;SDS011;60105;54.956;73.412;2023-05-07T16:45:13;27.27;;;8.95;;
72201;SDS011;60105;54.956;73.412;2023-05-07T16:48:15;26.20;;;8.20;;
72201;SDS011;60105;54.956;73.412;2023-05-07T16:51:55;19.15;;;7.45;;
72201;SDS011;60105;54.956;73.412;2023-05-07T16:54:57;23.65;;;8.05;;
72201;SDS011;60105;54.956;73.412;2023-05-07T16:58:01;18.23;;;8.25;;
72201;SDS011;60105;54.956;73.412;2023-05-07T17:01:03;28.13;;;8.60;;
72201;SDS011;60105;54.956;73.412;2023-05-07T17:04:04;18.37;;;7.77;;
72201;SDS011;60105;54.956;73.412;2023-05-07T17:07:05;26.23;;;8.27;;
72201;SDS011;60105;54.956;73.412;2023-05-07T17:10:07;17.02;;;7.00;;
72201;SDS011;60105;54.956;73.412;2023-05-07T17:13:09;16.85;;;6.80;;
72201;SDS011;60105;54.956;73.412;2023-05-07T17:16:10;13.95;;;6.35;;
72201;SDS011;60105;54.956;73.412;2023-05-07T17:19:11;19.40;;;5.80;;
72201;SDS011;60105;54.956;73.412;2023-05-07T17:22:13;20.75;;;7.68;;
72201;SDS011;60105;54.956;73.412;2023-05-07T17:25:15;16.50;;;6.03;;
72201;SDS011;60105;54.956;73.412;2023-05-07T17:28:17;16.85;;;6.18;;
72201;SDS011;60105;54.956;73.412;2023-05-07T17:31:23;16.42;;;6.88;;
72201;SDS011;60105;54.956;73.412;2023-05-07T17:34:25;14.13;;;5.93;;
72201;SDS011;60105;54.956;73.412;2023-05-07T17:37:26;18.43;;;7.23;;
72201;SDS011;60105;54.956;73.412;2023-05-07T17:40:28;17.77;;;5.88;;
72201;SDS011;60105;54.956;73.412;2023-05-07T17:43:30;13.90;;;6.28;;
72201;SDS011;60105;54.956;73.412;2023-05-07T17:49:56;18.83;;;7.55;;
72201;SDS011;60105;54.956;73.412;2023-05-07T17:52:57;17.20;;;7.07;;
72201;SDS011;60105;54.956;73.412;2023-05-07T17:55:59;16.58;;;7.18;;
72201;SDS011;60105;54.956;73.412;2023-05-07T17:59:00;15.83;;;6.23;;
72201;SDS011;60105;54.956;73.412;2023-05-07T18:02:02;19.77;;;6.93;;
72201;SDS011;60105;54.956;73.412;2023-05-07T18:05:03;25.37;;;6.40;;
72201;SDS011;60105;54.956;73.412;2023-05-07T18:08:08;13.37;;;6.37;;
72201;SDS011;60105;54.956;73.412;2023-05-07T18:11:10;14.40;;;6.40;;
72201;SDS011;60105;54.956;73.412;2023-05-07T18:14:11;14.90;;;6.63;;
72201;SDS011;60105;54.956;73.412;2023-05-07T18:17:12;15.45;;;6.22;;
72201;SDS011;60105;54.956;73.412;2023-05-07T18:20:14;16.88;;;6.50;;
72201;SDS011;60105;54.956;73.412;2023-05-07T18:23:16;16.00;;;6.27;;
72201;SDS011;60105;54.956;73.412;2023-05-07T18:26:55;11.68;;;5.30;;
72201;SDS011;60105;54.956;73.412;2023-05-07T18:29:56;14.43;;;6.60;;
72201;SDS011;60105;54.956;73.412;2023-05-07T18:32:57;14.13;;;6.33;;
72201;SDS011;60105;54.956;73.412;2023-05-07T18:35:59;17.88;;;6.70;;
72201;SDS011;60105;54.956;73.412;2023-05-07T18:39:00;10.40;;;5.67;;
72201;SDS011;60105;54.956;73.412;2023-05-07T18:42:02;19.98;;;5.25;;
72201;SDS011;60105;54.956;73.412;2023-05-07T18:45:05;13.80;;;5.93;;
72201;SDS011;60105;54.956;73.412;2023-05-07T18:48:09;14.57;;;5.90;;
72201;SDS011;60105;54.956;73.412;2023-05-07T18:51:55;20.41;;;5.54;;
72201;SDS011;60105;54.956;73.412;2023-05-07T18:54:56;11.63;;;5.13;;
72201;SDS011;60105;54.956;73.412;2023-05-07T18:57:57;12.03;;;5.40;;
72201;SDS011;60105;54.956;73.412;2023-05-07T19:01:00;16.45;;;5.25;;